Time;durP1;ratioP1;P1;durP2;ratioP2;P2;SDS_P1;SDS_P2;PMS_P1;PMS_P2;Temp;Humidity;BMP_temperature;BMP_pressure;BME280_temperature;BME280_humidity;BME280_pressure;Samples;Min_cycle;Max_cycle;Signal;HPM_P1;HPM_P2
2021/07/10 00:02:15;;;;;;;5.65;5.13;;;14.40;85.50;;;;;;5133334;27;20454;-77
2021/07/10 00:04:41;;;;;;;7.15;5.82;;;14.40;85.60;;;;;;5133025;27;20051;-77
2021/07/10 00:07:06;;;;;;;8.15;5.20;;;14.30;85.70;;;;;;5133407;27;20024;-77
2021/07/10 00:09:32;;;;;;;9.68;5.43;;;14.40;85.90;;;;;;5117453;28;20070;-77
2021/07/10 00:11:58;;;;;;;6.80;4.55;;;14.40;85.90;;;;;;5099024;28;20503;-78
2021/07/10 00:14:23;;;;;;;6.82;5.57;;;14.40;85.60;;;;;;5133210;27;20487;-77
2021/07/10 00:16:49;;;;;;;6.38;5.25;;;14.40;85.50;;;;;;5132818;27;20491;-77
2021/07/10 00:19:15;;;;;;;7.10;4.95;;;14.40;85.40;;;;;;5133050;27;20387;-77
2021/07/10 00:21:42;;;;;;;6.88;4.80;;;14.50;85.10;;;;;;5132779;27;20055;-77
2021/07/10 00:24:08;;;;;;;9.70;5.50;;;14.40;85.10;;;;;;5133150;27;20185;-77
2021/07/10 00:26:34;;;;;;;10.05;5.60;;;14.40;85.10;;;;;;5098418;28;20023;-77
2021/07/10 00:29:00;;;;;;;7.03;4.85;;;14.40;85.10;;;;;;5132757;27;20073;-78
2021/07/10 00:31:26;;;;;;;9.80;5.10;;;14.50;85.20;;;;;;5116939;28;20102;-77
2021/07/10 00:33:51;;;;;;;9.68;5.50;;;14.40;85.10;;;;;;5132349;27;20071;-78
2021/07/10 00:36:17;;;;;;;12.77;6.00;;;14.40;85.10;;;;;;5132500;27;20020;-78
2021/07/10 00:38:42;;;;;;;6.07;5.25;;;14.40;85.20;;;;;;5132266;27;20123;-78
2021/07/10 00:41:08;;;;;;;7.53;6.20;;;14.40;85.40;;;;;;5132407;27;20353;-77
2021/07/10 00:43:34;;;;;;;12.52;6.13;;;14.30;86.60;;;;;;5098721;28;20042;-78
2021/07/10 00:45:59;;;;;;;8.60;6.10;;;14.30;85.80;;;;;;5098356;28;20028;-77
2021/07/10 00:48:25;;;;;;;9.75;6.30;;;14.30;85.80;;;;;;5116759;28;20551;-77
2021/07/10 00:50:51;;;;;;;7.75;5.97;;;14.20;85.60;;;;;;5132046;27;20044;-77
2021/07/10 00:53:16;;;;;;;7.28;5.20;;;14.20;85.70;;;;;;5132019;27;20491;-78
2021/07/10 00:55:42;;;;;;;8.75;6.32;;;14.20;85.70;;;;;;5131947;27;20046;-78
2021/07/10 00:58:10;;;;;;;8.48;6.15;;;14.20;85.90;;;;;;5132125;27;20050;-77
2021/07/10 01:00:36;;;;;;;10.68;6.28;;;14.00;86.10;;;;;;5098003;28;20020;-76
2021/07/10 01:03:02;;;;;;;7.60;6.90;;;14.10;86.30;;;;;;5131927;27;20463;-77
2021/07/10 01:05:30;;;;;;;9.80;5.97;;;14.10;86.40;;;;;;5097874;28;20115;-77
2021/07/10 01:07:57;;;;;;;8.32;6.18;;;14.00;86.30;;;;;;5097777;28;20028;-76
2021/07/10 01:10:24;;;;;;;9.00;5.90;;;13.90;86.60;;;;;;5098009;28;20027;-77
2021/07/10 01:12:53;;;;;;;6.30;5.65;;;13.80;86.80;;;;;;5097146;28;20026;-77
2021/07/10 01:15:22;;;;;;;10.23;6.88;;;13.80;86.90;;;;;;5097842;28;20031;-77
2021/07/10 01:17:48;;;;;;;16.42;7.20;;;13.80;87.50;;;;;;5097932;28;20024;-77
2021/07/10 01:20:18;;;;;;;13.48;6.57;;;13.80;87.60;;;;;;5114707;28;20035;-76
2021/07/10 01:22:44;;;;;;;8.98;6.63;;;13.90;87.70;;;;;;5097560;28;20029;-76
2021/07/10 01:25:13;;;;;;;9.90;7.13;;;13.80;87.40;;;;;;5115669;28;20043;-76
2021/07/10 01:27:39;;;;;;;8.68;6.78;;;13.80;87.30;;;;;;5097644;28;20028;-76
2021/07/10 01:30:08;;;;;;;10.23;7.03;;;13.90;87.50;;;;;;5115735;28;20012;-76
2021/07/10 01:32:35;;;;;;;14.45;8.02;;;13.90;87.30;;;;;;5096953;28;20503;-76
2021/07/10 01:35:01;;;;;;;13.85;9.18;;;13.90;87.10;;;;;;5097170;28;20495;-77
2021/07/10 01:37:26;;;;;;;17.10;10.98;;;13.90;86.90;;;;;;5131226;27;20042;-77
2021/07/10 01:39:52;;;;;;;17.73;10.75;;;14.00;87.00;;;;;;5097092;28;20023;-76
2021/07/10 01:42:19;;;;;;;12.80;8.95;;;13.90;87.10;;;;;;5097499;28;20480;-77
2021/07/10 01:44:45;;;;;;;10.07;7.47;;;13.90;87.10;;;;;;5097120;28;20030;-76
2021/07/10 01:47:11;;;;;;;13.77;7.18;;;14.00;87.00;;;;;;5097300;28;20027;-77
2021/07/10 01:49:36;;;;;;;7.10;5.80;;;14.00;86.60;;;;;;5115358;28;20044;-76
2021/07/10 01:52:03;;;;;;;8.45;7.60;;;14.00;86.60;;;;;;5131447;27;20023;-76
2021/07/10 01:54:28;;;;;;;8.52;7.35;;;14.00;86.70;;;;;;5096466;28;20065;-76
2021/07/10 01:56:54;;;;;;;10.43;8.05;;;14.00;86.80;;;;;;5131202;27;20049;-76
2021/07/10 01:59:19;;;;;;;10.00;7.32;;;14.00;86.90;;;;;;5130843;27;20104;-76
2021/07/10 02:01:46;;;;;;;12.43;7.72;;;14.00;87.20;;;;;;5130746;27;20020;-76
2021/07/10 02:04:13;;;;;;;8.52;6.68;;;13.90;87.20;;;;;;5097045;28;20156;-77
2021/07/10 02:06:38;;;;;;;11.50;7.03;;;13.90;87.00;;;;;;5115039;28;20035;-77
2021/07/10 02:09:04;;;;;;;10.90;6.55;;;14.00;86.50;;;;;;5131008;27;20024;-77
2021/07/10 02:11:30;;;;;;;10.35;6.95;;;13.90;86.80;;;;;;5130894;27;20514;-77
2021/07/10 02:13:56;;;;;;;7.47;6.53;;;13.80;86.90;;;;;;5130412;27;20040;-77
2021/07/10 02:16:21;;;;;;;10.05;7.53;;;13.80;87.10;;;;;;5130575;27;20114;-77
2021/07/10 02:18:47;;;;;;;7.03;6.35;;;13.80;87.40;;;;;;5130427;27;20024;-77
2021/07/10 02:21:12;;;;;;;9.95;7.05;;;13.70;87.60;;;;;;5130411;27;20472;-77
2021/07/10 02:23:38;;;;;;;8.38;6.68;;;13.70;87.60;;;;;;5129240;27;20023;-77
2021/07/10 02:26:04;;;;;;;8.40;6.88;;;13.70;87.70;;;;;;5130231;27;20372;-77
2021/07/10 02:28:29;;;;;;;8.00;6.53;;;13.70;87.70;;;;;;5130402;27;20035;-76
2021/07/10 02:30:55;;;;;;;10.55;7.13;;;13.80;87.20;;;;;;5114456;28;20054;-77
2021/07/10 02:33:21;;;;;;;13.07;7.30;;;13.80;86.60;;;;;;5130344;27;20046;-76
2021/07/10 02:35:47;;;;;;;9.43;7.05;;;13.80;86.70;;;;;;5130275;27;20425;-77
2021/07/10 02:38:13;;;;;;;7.60;6.85;;;13.70;87.00;;;;;;5096392;28;20487;-77
2021/07/10 02:40:39;;;;;;;9.48;7.18;;;13.70;87.00;;;;;;5130256;27;20059;-77
2021/07/10 02:43:05;;;;;;;10.48;7.38;;;13.60;87.30;;;;;;5130230;27;20046;-77
2021/07/10 02:45:31;;;;;;;10.50;7.10;;;13.60;87.50;;;;;;5096165;28;20435;-77
2021/07/10 02:47:58;;;;;;;7.05;6.05;;;13.60;87.50;;;;;;5130765;27;20050;-77
2021/07/10 02:50:25;;;;;;;11.07;7.18;;;13.60;87.70;;;;;;5130690;27;20050;-76
2021/07/10 02:52:53;;;;;;;8.05;6.57;;;13.60;87.70;;;;;;5096722;28;20058;-76
2021/07/10 02:55:20;;;;;;;8.30;7.30;;;13.70;87.50;;;;;;5096666;28;20551;-77
2021/07/10 02:57:45;;;;;;;15.57;8.05;;;13.60;87.60;;;;;;5095699;28;20047;-76
2021/07/10 03:00:15;;;;;;;10.15;7.80;;;13.60;87.80;;;;;;5129986;27;20073;-77
2021/07/10 03:02:41;;;;;;;8.00;7.20;;;13.60;88.00;;;;;;5113456;28;20495;-79
2021/07/10 03:05:07;;;;;;;10.10;7.28;;;13.50;88.00;;;;;;5129936;27;20023;-78
2021/07/10 03:07:37;;;;;;;10.18;7.10;;;13.40;87.60;;;;;;5095677;28;20024;-78
2021/07/10 03:10:09;;;;;;;8.07;7.25;;;13.40;88.60;;;;;;5095326;28;20131;-78
2021/07/10 03:12:34;;;;;;;12.05;8.30;;;13.40;88.70;;;;;;5095463;28;20072;-77
2021/07/10 03:15:00;;;;;;;10.68;8.43;;;13.40;88.70;;;;;;5113828;28;20450;-78
2021/07/10 03:17:26;;;;;;;9.80;8.48;;;13.40;88.60;;;;;;5129765;27;20426;-78
2021/07/10 03:19:52;;;;;;;12.18;8.02;;;13.40;88.70;;;;;;5129424;27;20111;-77
2021/07/10 03:22:17;;;;;;;10.90;7.70;;;13.30;88.50;;;;;;5129357;27;20024;-78
2021/07/10 03:24:43;;;;;;;9.57;8.30;;;13.30;88.60;;;;;;5129232;27;20524;-78
2021/07/10 03:27:08;;;;;;;11.65;8.48;;;13.30;88.50;;;;;;5129678;27;20491;-78
2021/07/10 03:29:35;;;;;;;10.20;7.70;;;13.30;88.40;;;;;;5129360;27;20072;-78
2021/07/10 03:32:00;;;;;;;12.65;8.60;;;13.30;88.40;;;;;;5097635;28;20026;-75
2021/07/10 03:34:26;;;;;;;12.95;8.57;;;13.40;88.50;;;;;;5135260;27;20031;-76
2021/07/10 03:36:52;;;;;;;11.57;8.88;;;13.40;88.40;;;;;;5099913;28;20016;-77
2021/07/10 03:39:17;;;;;;;13.85;8.23;;;13.30;88.50;;;;;;5130642;27;20026;-75
2021/07/10 03:41:43;;;;;;;10.45;8.48;;;13.40;88.30;;;;;;5129133;27;20027;-76
2021/07/10 03:44:10;;;;;;;10.95;7.95;;;13.30;88.50;;;;;;5129498;28;20027;-75
2021/07/10 03:46:35;;;;;;;10.73;7.68;;;13.30;88.30;;;;;;5129376;27;20046;-75
2021/07/10 03:49:01;;;;;;;11.60;8.50;;;13.30;88.30;;;;;;5129273;28;20479;-75
2021/07/10 03:51:27;;;;;;;10.07;6.95;;;13.20;88.20;;;;;;5113333;28;20107;-75
2021/07/10 03:53:53;;;;;;;9.35;8.30;;;13.20;87.90;;;;;;5128974;28;20077;-76
2021/07/10 03:56:19;;;;;;;11.98;8.70;;;13.30;88.00;;;;;;5095165;28;20069;-75
2021/07/10 03:58:46;;;;;;;9.55;8.35;;;13.30;88.30;;;;;;5095059;28;20552;-75
2021/07/10 04:01:12;;;;;;;11.35;8.70;;;13.30;88.40;;;;;;5113109;28;20031;-74
2021/07/10 04:03:38;;;;;;;10.18;8.40;;;13.30;88.20;;;;;;5095160;28;20111;-78
2021/07/10 04:06:03;;;;;;;14.10;8.25;;;13.40;88.10;;;;;;5094657;28;20058;-78
2021/07/10 04:08:29;;;;;;;10.73;7.60;;;13.40;87.60;;;;;;5128923;28;20422;-77
2021/07/10 04:10:54;;;;;;;10.43;7.40;;;13.50;87.60;;;;;;5128829;28;20413;-78
2021/07/10 04:13:21;;;;;;;8.40;7.13;;;13.50;87.40;;;;;;5129123;28;20031;-77
2021/07/10 04:15:47;;;;;;;10.25;7.85;;;13.50;87.20;;;;;;5129129;28;20145;-76
2021/07/10 04:18:13;;;;;;;9.35;6.95;;;13.60;86.80;;;;;;5128799;28;20069;-77
2021/07/10 04:20:39;;;;;;;8.68;7.75;;;13.60;86.90;;;;;;5095275;28;20020;-75
2021/07/10 04:23:05;;;;;;;10.23;8.30;;;13.60;86.50;;;;;;5094878;28;20410;-75
2021/07/10 04:25:31;;;;;;;8.23;7.25;;;13.60;86.20;;;;;;5094927;28;20091;-79
2021/07/10 04:27:57;;;;;;;10.20;7.80;;;13.80;85.90;;;;;;5113262;28;20020;-79
2021/07/10 04:30:23;;;;;;;8.20;7.38;;;13.80;85.70;;;;;;5128782;28;20430;-79
2021/07/10 04:32:50;;;;;;;7.95;7.00;;;13.80;85.60;;;;;;5094857;28;20031;-79
2021/07/10 04:35:17;;;;;;;9.50;7.38;;;13.80;86.60;;;;;;5094965;28;20031;-79
2021/07/10 04:37:43;;;;;;;9.35;6.63;;;13.80;85.80;;;;;;5094769;28;20024;-78
2021/07/10 04:40:10;;;;;;;10.05;6.90;;;13.80;85.50;;;;;;5128951;28;20030;-78
2021/07/10 04:42:35;;;;;;;8.43;6.43;;;13.90;85.40;;;;;;5094658;28;20028;-80
2021/07/10 04:45:02;;;;;;;7.18;6.40;;;14.00;86.00;;;;;;5128573;28;20384;-79
2021/07/10 04:47:28;;;;;;;11.45;7.68;;;14.10;84.80;;;;;;5097124;28;20049;-80
2021/07/10 04:49:53;;;;;;;11.65;8.05;;;14.10;84.60;;;;;;5098006;28;20052;-78
2021/07/10 04:52:19;;;;;;;9.60;7.80;;;14.10;84.60;;;;;;5116394;28;20055;-78
2021/07/10 04:54:44;;;;;;;10.23;7.53;;;14.20;84.60;;;;;;5132275;27;20046;-78
2021/07/10 04:57:10;;;;;;;10.82;7.40;;;14.20;84.70;;;;;;5132095;27;20030;-78
2021/07/10 04:59:37;;;;;;;9.32;6.90;;;14.30;84.60;;;;;;5132136;27;20053;-78
2021/07/10 05:02:02;;;;;;;12.45;8.20;;;14.50;84.50;;;;;;5116382;28;20050;-76
2021/07/10 05:04:28;;;;;;;10.02;7.60;;;14.60;83.90;;;;;;5115999;28;20059;-75
2021/07/10 05:06:53;;;;;;;10.98;7.38;;;14.70;83.10;;;;;;5132079;27;20118;-75
2021/07/10 05:09:19;;;;;;;9.05;7.05;;;14.80;82.60;;;;;;5131919;27;20026;-76
2021/07/10 05:11:46;;;;;;;12.77;7.32;;;15.00;82.10;;;;;;5131931;27;20034;-77
2021/07/10 05:14:12;;;;;;;9.00;6.93;;;15.10;81.50;;;;;;5097929;28;20033;-75
2021/07/10 05:16:37;;;;;;;8.73;6.18;;;15.20;81.30;;;;;;5116366;28;20141;-75
2021/07/10 05:19:05;;;;;;;7.28;6.00;;;15.20;81.30;;;;;;5131822;27;20077;-78
2021/07/10 05:21:31;;;;;;;10.40;6.93;;;15.30;81.30;;;;;;5116301;28;20020;-78
2021/07/10 05:23:57;;;;;;;8.35;6.90;;;15.40;80.80;;;;;;5097846;28;20378;-78
2021/07/10 05:26:22;;;;;;;7.00;6.00;;;15.50;80.90;;;;;;5131886;27;20076;-77
2021/07/10 05:28:48;;;;;;;9.73;6.30;;;15.60;80.80;;;;;;5131646;27;20479;-78
2021/07/10 05:31:14;;;;;;;7.10;5.22;;;15.60;80.70;;;;;;5131931;27;20019;-78
2021/07/10 05:33:39;;;;;;;8.45;6.20;;;15.80;80.50;;;;;;5097556;28;20126;-78
2021/07/10 05:36:05;;;;;;;11.90;6.65;;;15.80;79.90;;;;;;5131701;27;20114;-78
2021/07/10 05:38:30;;;;;;;6.63;5.55;;;15.90;79.60;;;;;;5131724;27;20436;-79
2021/07/10 05:40:56;;;;;;;5.20;4.63;;;16.00;79.30;;;;;;5115866;28;20020;-79
2021/07/10 05:43:23;;;;;;;5.35;4.82;;;16.10;78.90;;;;;;5131673;27;20034;-76
2021/07/10 05:45:50;;;;;;;7.05;5.47;;;16.30;78.30;;;;;;5116091;28;20024;-75
2021/07/10 05:48:16;;;;;;;7.47;6.10;;;16.40;77.20;;;;;;5097122;28;20365;-76
2021/07/10 05:50:42;;;;;;;9.98;6.05;;;16.50;76.80;;;;;;5115292;28;20054;-77
2021/07/10 05:53:08;;;;;;;8.32;4.90;;;16.50;76.60;;;;;;5096969;28;20050;-78
2021/07/10 05:55:34;;;;;;;7.72;5.72;;;16.60;76.40;;;;;;5115381;28;20068;-78
2021/07/10 05:58:00;;;;;;;8.93;5.40;;;16.70;76.10;;;;;;5115152;28;20422;-78
2021/07/10 06:00:26;;;;;;;6.05;5.30;;;16.80;75.60;;;;;;5131236;27;20353;-76
2021/07/10 06:02:51;;;;;;;5.55;4.70;;;16.80;75.50;;;;;;5130967;27;20493;-77
2021/07/10 06:05:17;;;;;;;6.32;4.32;;;16.90;75.50;;;;;;5130976;27;20115;-76
2021/07/10 06:07:43;;;;;;;5.55;4.22;;;17.10;75.10;;;;;;5130557;27;20472;-76
2021/07/10 06:10:10;;;;;;;4.57;4.07;;;17.20;74.70;;;;;;5130430;27;20020;-77
2021/07/10 06:12:36;;;;;;;4.47;4.07;;;17.40;74.30;;;;;;5114703;28;20028;-76
2021/07/10 06:15:05;;;;;;;4.65;4.15;;;17.50;73.90;;;;;;5096558;28;20082;-75
2021/07/10 06:17:30;;;;;;;6.57;4.28;;;17.70;73.40;;;;;;5114161;28;20027;-77
2021/07/10 06:19:56;;;;;;;5.40;4.47;;;17.80;72.70;;;;;;5095978;28;20363;-76
2021/07/10 06:22:22;;;;;;;4.50;3.88;;;18.00;72.30;;;;;;5114515;28;20035;-77
2021/07/10 06:24:47;;;;;;;4.68;4.22;;;18.10;72.30;;;;;;5114584;28;20057;-77
2021/07/10 06:27:13;;;;;;;5.30;4.60;;;18.30;72.40;;;;;;5096081;28;20523;-78
2021/07/10 06:29:39;;;;;;;5.65;4.68;;;18.40;71.80;;;;;;5129946;27;20132;-79
2021/07/10 06:32:08;;;;;;;6.15;4.80;;;18.40;71.20;;;;;;5129801;27;20028;-77
2021/07/10 06:34:34;;;;;;;7.10;3.92;;;18.50;70.50;;;;;;5096116;28;20058;-77
2021/07/10 06:37:00;;;;;;;7.93;4.40;;;18.50;69.50;;;;;;5095935;28;20447;-78
2021/07/10 06:39:25;;;;;;;10.77;5.30;;;18.40;69.20;;;;;;5129924;27;20031;-77
2021/07/10 06:41:51;;;;;;;5.28;4.07;;;18.40;69.70;;;;;;5129494;27;20053;-77
2021/07/10 06:44:17;;;;;;;5.70;4.65;;;18.40;71.20;;;;;;5095887;28;20028;-76
2021/07/10 06:46:42;;;;;;;6.35;4.68;;;18.40;70.70;;;;;;5097352;28;20116;-77
2021/07/10 06:49:08;;;;;;;8.05;4.75;;;18.40;71.10;;;;;;5087833;28;20050;-76
2021/07/10 06:51:34;;;;;;;6.05;4.63;;;18.50;71.60;;;;;;5075539;28;20028;-78
2021/07/10 06:54:00;;;;;;;6.25;4.72;;;18.40;72.30;;;;;;5093571;28;20082;-77
2021/07/10 06:56:28;;;;;;;4.90;3.90;;;18.40;72.80;;;;;;5075841;28;20127;-76
2021/07/10 06:58:54;;;;;;;6.50;4.28;;;18.50;72.40;;;;;;5074924;28;20436;-74
2021/07/10 07:01:19;;;;;;;14.70;4.85;;;18.60;71.00;;;;;;5075118;28;20052;-75
2021/07/10 07:03:45;;;;;;;5.93;4.55;;;18.50;71.30;;;;;;5075149;28;20028;-75
2021/07/10 07:06:11;;;;;;;5.78;4.95;;;18.40;71.90;;;;;;5074848;28;20063;-76
2021/07/10 07:08:36;;;;;;;5.28;4.53;;;18.40;72.70;;;;;;5074900;28;20105;-77
2021/07/10 07:11:02;;;;;;;5.88;4.78;;;18.50;72.80;;;;;;5076177;28;20032;-77
2021/07/10 07:13:27;;;;;;;5.70;5.10;;;18.70;72.90;;;;;;5086992;28;20032;-77
2021/07/10 07:15:53;;;;;;;5.25;4.75;;;18.50;72.80;;;;;;5080712;28;20502;-77
2021/07/10 07:18:18;;;;;;;5.32;4.32;;;18.60;73.00;;;;;;5076049;28;20115;-75
2021/07/10 07:20:45;;;;;;;5.03;4.50;;;18.70;72.10;;;;;;5074989;28;20115;-77
2021/07/10 07:23:11;;;;;;;6.93;4.93;;;18.70;72.20;;;;;;5075075;28;20024;-76
2021/07/10 07:25:40;;;;;;;6.03;4.20;;;18.60;72.00;;;;;;5093036;28;20024;-79
2021/07/10 07:28:06;;;;;;;5.15;4.65;;;18.60;72.40;;;;;;5075149;28;20090;-78
2021/07/10 07:30:34;;;;;;;6.85;3.60;;;18.70;72.20;;;;;;5074997;28;20028;-78
2021/07/10 07:32:59;;;;;;;7.95;4.45;;;18.80;71.50;;;;;;5075126;28;20442;-79
2021/07/10 07:35:25;;;;;;;4.72;4.18;;;19.00;71.30;;;;;;5074419;28;20039;-76
2021/07/10 07:37:51;;;;;;;6.50;4.70;;;19.10;70.80;;;;;;5074347;28;20020;-78
2021/07/10 07:40:18;;;;;;;7.13;4.63;;;19.30;71.00;;;;;;5092670;28;20062;-84
2021/07/10 07:42:49;;;;;;;14.25;3.95;;;19.40;71.50;;;;;;5093235;28;20089;-82
2021/07/10 07:45:18;;;;;;;6.43;3.53;;;19.50;70.90;;;;;;5060754;28;20567;-78
2021/07/10 07:47:44;;;;;;;7.22;3.75;;;19.90;72.30;;;;;;5079141;28;20020;-79
2021/07/10 07:50:36;;;;;;;8.88;4.18;;;20.20;71.60;;;;;;5091443;28;20130;-82
2021/07/10 07:53:53;;;;;;;6.35;4.50;;;20.50;67.20;;;;;;5058986;28;20472;-86
2021/07/10 07:56:24;;;;;;;5.55;3.33;;;20.40;66.80;;;;;;5054755;28;20041;-82
2021/07/10 07:59:05;;;;;;;5.40;3.55;;;20.70;67.60;;;;;;5039725;28;20037;-87
2021/07/10 08:01:31;;;;;;;5.57;3.67;;;21.00;66.90;;;;;;5041104;28;20024;-83
2021/07/10 08:03:56;;;;;;;3.85;3.50;;;21.30;65.90;;;;;;5054581;28;20046;-82
2021/07/10 08:06:25;;;;;;;4.03;3.60;;;21.50;64.50;;;;;;5038356;28;20131;-85
2021/07/10 08:08:50;;;;;;;6.22;3.72;;;21.60;62.80;;;;;;5055138;28;20427;-82
2021/07/10 08:11:17;;;;;;;5.45;3.03;;;21.60;61.10;;;;;;5055164;28;20021;-82
2021/07/10 08:13:44;;;;;;;3.95;2.40;;;21.50;62.50;;;;;;5057482;28;20043;-89
2021/07/10 08:16:12;;;;;;;5.32;3.90;;;21.70;62.90;;;;;;5056046;28;20100;-85
2021/07/10 08:18:38;;;;;;;6.97;3.85;;;21.60;62.30;;;;;;5055623;28;20081;-85
2021/07/10 08:21:04;;;;;;;6.28;4.43;;;21.70;62.30;;;;;;5056034;28;20029;-85
2021/07/10 08:23:29;;;;;;;7.90;5.30;;;21.50;63.80;;;;;;5059173;28;20473;-87
2021/07/10 08:25:56;;;;;;;6.80;5.57;;;21.50;64.00;;;;;;5042309;28;20129;-86
2021/07/10 08:28:43;;;;;;;5.32;3.50;;;21.60;63.30;;;;;;5059190;28;20151;-87
2021/07/10 08:31:11;;;;;;;5.75;3.72;;;21.60;62.90;;;;;;5045646;28;20028;-86
2021/07/10 08:33:38;;;;;;;4.80;3.90;;;21.70;62.40;;;;;;5059415;28;20167;-87
2021/07/10 08:36:10;;;;;;;6.00;3.42;;;21.70;61.90;;;;;;5076439;28;20036;-82
2021/07/10 08:38:37;;;;;;;3.47;3.10;;;21.60;61.90;;;;;;5077057;28;20032;-85
2021/07/10 08:41:09;;;;;;;5.65;3.20;;;21.70;61.90;;;;;;5058734;28;20082;-86
2021/07/10 08:43:36;;;;;;;4.35;3.17;;;21.70;61.30;;;;;;5058496;28;20391;-87
2021/07/10 08:46:03;;;;;;;4.78;3.00;;;21.50;62.00;;;;;;5076540;28;20534;-82
2021/07/10 08:48:31;;;;;;;5.43;3.40;;;21.40;63.00;;;;;;5058062;28;20028;-82
2021/07/10 08:50:58;;;;;;;4.13;3.58;;;21.50;63.10;;;;;;5073892;28;20040;-83
2021/07/10 08:53:24;;;;;;;4.47;3.20;;;21.60;61.50;;;;;;5086700;28;20028;-81
2021/07/10 08:55:53;;;;;;;4.80;2.92;;;21.70;62.70;;;;;;5108499;28;20051;-87
2021/07/10 08:58:29;;;;;;;4.72;3.17;;;21.80;62.20;;;;;;5102053;28;20020;-81
2021/07/10 09:01:02;;;;;;;3.97;3.53;;;22.00;62.10;;;;;;5064396;28;20369;-86
2021/07/10 09:03:41;;;;;;;6.70;3.75;;;21.70;62.30;;;;;;5097940;28;20039;-81
2021/07/10 09:06:11;;;;;;;4.07;3.53;;;21.60;63.60;;;;;;5096645;28;20024;-82
2021/07/10 09:08:39;;;;;;;4.75;4.00;;;21.50;62.40;;;;;;5078439;28;20032;-80
2021/07/10 09:11:17;;;;;;;5.95;3.30;;;21.50;63.50;;;;;;5096513;28;20122;-84
2021/07/10 09:13:53;;;;;;;5.63;3.45;;;21.60;62.90;;;;;;5078318;28;20040;-88
2021/07/10 09:16:35;;;;;;;6.38;3.72;;;21.80;63.10;;;;;;5078070;28;20107;-87
2021/07/10 09:19:07;;;;;;;3.85;3.50;;;21.90;61.00;;;;;;5087338;28;20027;-83
2021/07/10 09:21:46;;;;;;;4.07;3.67;;;22.20;62.80;;;;;;5098267;28;20054;-82
2021/07/10 09:24:44;;;;;;;6.88;3.33;;;22.20;61.20;;;;;;5097735;28;20083;-82
2021/07/10 09:27:11;;;;;;;20.80;11.80;;;22.40;61.30;;;;;;5116066;28;20024;-87
2021/07/10 09:29:52;;;;;;;11.15;5.88;;;22.80;61.70;;;;;;5080394;28;20430;-83
2021/07/10 09:32:50;;;;;;;12.82;3.72;;;23.20;59.80;;;;;;5097322;28;20043;-85
2021/07/10 09:35:16;;;;;;;5.18;3.13;;;23.60;57.50;;;;;;5097411;28;20040;-85
2021/07/10 09:37:58;;;;;;;5.45;3.72;;;23.70;55.50;;;;;;5116330;28;20027;-89
2021/07/10 09:40:24;;;;;;;3.78;2.55;;;23.70;55.30;;;;;;5083026;28;20023;-87
2021/07/10 09:43:23;;;;;;;3.08;2.75;;;23.70;55.50;;;;;;5080468;28;20084;-84
2021/07/10 09:45:52;;;;;;;4.47;3.53;;;23.80;55.20;;;;;;5113469;28;20403;-83
2021/07/10 09:48:19;;;;;;;6.07;3.17;;;24.00;57.40;;;;;;5098020;28;20088;-83
2021/07/10 09:50:45;;;;;;;4.85;3.78;;;24.20;55.90;;;;;;5104504;28;20492;-86
2021/07/10 09:54:13;;;;;;;6.32;4.25;;;24.30;55.60;;;;;;5115831;28;20032;-89
2021/07/10 09:57:34;;;;;;;3.80;3.25;;;24.30;55.00;;;;;;5111458;28;20043;-83
2021/07/10 10:00:22;;;;;;;5.15;3.20;;;23.90;53.80;;;;;;5115635;28;20118;-87
2021/07/10 10:02:56;;;;;;;4.75;3.13;;;23.80;54.20;;;;;;5079234;28;20034;-82
2021/07/10 10:05:28;;;;;;;4.13;2.77;;;23.90;54.50;;;;;;5115085;28;20122;-84
2021/07/10 10:07:56;;;;;;;2.90;2.40;;;23.90;53.00;;;;;;5116892;28;20027;-84
2021/07/10 10:10:44;;;;;;;2.58;2.38;;;24.00;52.60;;;;;;5095921;28;20027;-84
2021/07/10 10:13:57;;;;;;;2.65;2.20;;;23.80;52.10;;;;;;5116587;28;20069;-81
2021/07/10 10:17:05;;;;;;;3.15;2.20;;;23.70;50.80;;;;;;5110180;28;20123;-85
2021/07/10 10:19:56;;;;;;;3.40;2.30;;;23.70;52.50;;;;;;5114243;28;20118;-82
2021/07/10 10:22:29;;;;;;;4.05;2.50;;;24.00;52.40;;;;;;5097866;28;20391;-83
2021/07/10 10:24:55;;;;;;;5.60;3.42;;;24.40;53.80;;;;;;5081001;28;20484;-83
2021/07/10 10:27:23;;;;;;;4.63;3.20;;;24.90;53.40;;;;;;5097724;28;20032;-85
2021/07/10 10:30:33;;;;;;;3.88;2.80;;;25.20;51.90;;;;;;5097875;28;20019;-83
2021/07/10 10:33:17;;;;;;;3.15;2.40;;;25.50;50.20;;;;;;5094686;28;20034;-83
2021/07/10 10:35:47;;;;;;;2.17;1.98;;;25.50;48.80;;;;;;5080443;28;20095;-81
2021/07/10 10:38:45;;;;;;;3.42;2.60;;;25.40;48.80;;;;;;5080375;28;20188;-80
2021/07/10 10:41:11;;;;;;;4.05;2.65;;;25.40;49.20;;;;;;5115782;28;20541;-81
2021/07/10 10:43:37;;;;;;;3.85;2.70;;;25.60;49.70;;;;;;5097784;28;20100;-80
2021/07/10 10:46:13;;;;;;;3.50;2.35;;;25.60;47.90;;;;;;5100866;28;20045;-80
2021/07/10 10:48:41;;;;;;;3.72;2.42;;;25.50;47.50;;;;;;5104355;28;20027;-86
2021/07/10 10:51:28;;;;;;;3.25;2.17;;;25.40;47.70;;;;;;5128290;28;20095;-82
2021/07/10 10:54:23;;;;;;;3.00;2.70;;;25.60;48.40;;;;;;5099226;28;20127;-81
2021/07/10 10:56:49;;;;;;;2.42;2.00;;;25.50;47.40;;;;;;5081318;28;20475;-81
2021/07/10 10:59:41;;;;;;;2.50;1.50;;;25.80;44.20;;;;;;5079898;28;20046;-80
2021/07/10 11:02:35;;;;;;;4.35;1.55;;;26.20;41.80;;;;;;5096648;28;20118;-80
2021/07/10 11:05:03;;;;;;;2.20;2.00;;;26.20;39.50;;;;;;5096618;28;20047;-81
2021/07/10 11:07:49;;;;;;;3.53;1.83;;;26.20;40.70;;;;;;5080792;28;20514;-86
2021/07/10 11:10:17;;;;;;;;;;;26.30;41.00;;;;;;5079546;28;20043;-82
2021/07/10 11:13:47;;;;;;;3.95;2.47;;;26.30;42.10;;;;;;5117950;28;19903;-83
2021/07/10 11:17:01;;;;;;;3.88;2.55;;;26.60;44.30;;;;;;5118065;28;20024;-82
2021/07/10 11:20:07;;;;;;;2.75;2.00;;;26.70;44.70;;;;;;5079441;28;20035;-85
2021/07/10 11:23:34;;;;;;;8.15;2.58;;;26.30;44.30;;;;;;5114183;28;20491;-85
2021/07/10 11:26:20;;;;;;;;;;;26.10;45.10;;;;;;5113339;28;20472;-82
2021/07/10 11:28:52;;;;;;;5.13;2.85;;;25.90;47.10;;;;;;5095374;28;19915;-85
2021/07/10 11:31:37;;;;;;;3.65;2.45;;;25.50;47.00;;;;;;5096180;28;20032;-83
2021/07/10 11:34:32;;;;;;;2.50;2.30;;;25.00;48.60;;;;;;5095899;28;20036;-86
2021/07/10 11:37:00;;;;;;;3.35;2.40;;;24.60;47.20;;;;;;5069444;28;20028;-85
2021/07/10 11:40:01;;;;;;;2.03;1.50;;;24.30;48.20;;;;;;5095839;28;20038;-84
2021/07/10 11:42:31;;;;;;;3.30;1.58;;;24.30;41.80;;;;;;5114492;28;20029;-81
2021/07/10 11:45:46;;;;;;;2.50;1.60;;;24.30;41.80;;;;;;5095910;28;20077;-81
2021/07/10 11:49:22;;;;;;;1.95;1.60;;;24.40;42.60;;;;;;5052316;28;20028;-88
2021/07/10 11:53:18;;;;;;;3.80;1.95;;;24.40;41.90;;;;;;5065760;28;20150;-84
2021/07/10 11:56:49;;;;;;;1.60;1.50;;;24.50;43.60;;;;;;5014877;28;20564;-85
2021/07/10 12:00:34;;;;;;;2.17;1.88;;;24.80;42.00;;;;;;5049990;28;20509;-88
2021/07/10 12:03:50;;;;;;;1.77;1.42;;;24.90;42.50;;;;;;5059203;28;20029;-87
2021/07/10 12:07:09;;;;;;;1.80;1.42;;;25.00;42.70;;;;;;5057957;28;20638;-85
2021/07/10 12:09:55;;;;;;;1.50;1.40;;;24.90;41.70;;;;;;5055400;28;20120;-80
2021/07/10 12:12:20;;;;;;;1.55;1.30;;;24.80;40.80;;;;;;5040502;28;20115;-80
2021/07/10 12:14:56;;;;;;;15.80;11.98;;;24.90;40.40;;;;;;5023368;28;20128;-80
2021/07/10 12:17:23;;;;;;;3.97;2.25;;;24.80;39.80;;;;;;5039121;28;20039;-78
2021/07/10 12:19:50;;;;;;;3.25;1.65;;;24.90;39.80;;;;;;5037832;28;20053;-79
2021/07/10 12:22:16;;;;;;;1.67;1.38;;;24.90;40.30;;;;;;5037924;28;20086;-79
2021/07/10 12:24:43;;;;;;;2.70;1.40;;;24.80;39.20;;;;;;5039800;28;20519;-79
2021/07/10 12:27:19;;;;;;;1.63;1.42;;;24.80;39.40;;;;;;5023229;28;20044;-80
2021/07/10 12:29:52;;;;;;;2.83;1.48;;;25.00;40.00;;;;;;5040657;28;20483;-79
2021/07/10 12:32:18;;;;;;;3.38;1.73;;;25.50;39.50;;;;;;5023679;28;20029;-79
2021/07/10 12:34:57;;;;;;;2.38;1.35;;;25.60;38.90;;;;;;5043071;28;20118;-79
2021/07/10 12:37:28;;;;;;;3.15;1.48;;;25.70;39.30;;;;;;5076966;28;20021;-79
2021/07/10 12:40:12;;;;;;;2.75;1.70;;;25.60;40.40;;;;;;5059867;28;20115;-79
2021/07/10 12:42:38;;;;;;;1.45;1.35;;;25.60;40.30;;;;;;5082784;28;20047;-79
2021/07/10 12:45:08;;;;;;;4.82;4.03;;;25.70;38.70;;;;;;5101113;28;20020;-80
2021/07/10 12:47:34;;;;;;;5.30;4.28;;;25.70;39.00;;;;;;5100410;28;20051;-80
2021/07/10 12:50:00;;;;;;;1.70;1.60;;;25.90;40.00;;;;;;5100912;28;20054;-80
2021/07/10 12:52:30;;;;;;;2.08;1.70;;;26.00;40.80;;;;;;5100396;28;20582;-80
2021/07/10 12:55:06;;;;;;;2.22;1.48;;;26.00;39.80;;;;;;5119328;28;20035;-79
2021/07/10 12:57:39;;;;;;;2.05;1.55;;;26.20;39.00;;;;;;5101413;28;20020;-79
2021/07/10 13:00:09;;;;;;;1.40;1.10;;;26.60;38.20;;;;;;5100822;28;20050;-80
2021/07/10 13:03:00;;;;;;;1.20;1.10;;;26.70;36.70;;;;;;5101039;28;20058;-80
2021/07/10 13:05:30;;;;;;;2.03;1.45;;;26.80;35.60;;;;;;5101268;28;20023;-80
2021/07/10 13:08:15;;;;;;;1.63;1.25;;;27.10;36.10;;;;;;5098217;28;20463;-79
2021/07/10 13:10:51;;;;;;;;;;;27.40;36.80;;;;;;5098326;28;20020;-80